• Join FlightAware (Why Join?)
  • Login
  • US Flag 
05:27PM EST


 

Airport Tracker/Info


-or-


 

Live Flight TrackerFlight Track Log ✈ OPT438 ✈ 23-Feb-2014 ✈ KCGF - KTEB

Flight Track Log - Related Links

Times and Time Zones

All times are in EST time to prevent confusion due to time zone crossing. See the OPT438 flight status page for this flight to view local times or setup timezone preferences in your user account.

Time Position Orientation Groundspeed Altitude Reporting Facility
EST Latitude Longitude Course Direction KTS MPH feet Rate Location/Type
10:48AM 41.5617 -81.5531 90° East 207 238 3,000  Level Cleveland Center
10:49AM 41.5936 -81.5419 15° North 244 281 3,500 1,980 Climbing Cleveland Center
10:49AM 41.6242 -81.5278 19° North 228 262 5,100 3,180 Climbing Cleveland Center
10:50AM 41.6864 -81.4825 29° Northeast 255 293 8,500 3,300 Climbing Cleveland Center
10:51AM 41.6983 -81.3708 82° East 301 346 11,900 3,420 Climbing Cleveland Center
10:52AM 41.7058 -81.2483 85° East 320 368 15,600 3,360 Climbing Cleveland Center
10:54AM 41.8833 -81.0556 90° East  Level FlightAware Approximate
10:54AM 41.7142 -81.1167 85° East 348 400 18,900  Level Cleveland Center
10:55AM 41.7233 -80.9786 85° East 363 418 21,800 2,580 Climbing Cleveland Center
10:56AM 41.7322 -80.8256 85° East 406 467 24,200 2,340 Climbing Cleveland Center
10:57AM 41.7408 -80.6619 86° East 432 497 26,600 2,280 Climbing Cleveland Center
10:58AM 41.7508 -80.4953 85° East 441 507 28,900 2,100 Climbing Cleveland Center
10:59AM 41.7594 -80.3267 86° East 448 516 31,000 1,020 Climbing Cleveland Center
11:00AM 41.7689 -80.1536 86° East 458 527 31,000  Level Cleveland Center
11:01AM 41.7789 -79.9528 86° East 461 531 31,000  Level Cleveland Center
11:02AM 41.7881 -79.7800 86° East 460 529 31,000  Level Cleveland Center
11:03AM 41.7950 -79.6181 87° East 453 521 31,000  Level Cleveland Center
11:04AM 41.8047 -79.4322 86° East 451 519 31,000  Level Cleveland Center
11:05AM 41.8117 -79.2603 87° East 451 519 31,000  Level Cleveland Center
11:06AM 41.8181 -79.0939 87° East 450 518 31,000  Level Cleveland Center
11:07AM 41.8172 -78.9269 90° East 451 519 31,000  Level Cleveland Center
11:08AM 41.8053 -78.7664 96° East 449 517 31,000  Level Cleveland Center
11:09AM 41.7947 -78.6017 95° East 447 514 31,000  Level Cleveland Center
11:10AM 41.7822 -78.4356 96° East 447 514 31,000  Level Cleveland Center
11:11AM 41.7694 -78.2708 96° East 447 514 31,000  Level Cleveland Center
11:12AM 41.7542 -78.0739 96° East 446 513 31,000  Level Cleveland Center
11:13AM 41.7414 -77.9094 96° East 446 513 31,000  Level Cleveland Center
11:14AM 41.7333 -77.8119 96° East 448 516 31,000  Level New York Center
11:15AM 41.7200 -77.6492 96° East 448 516 31,000  Level New York Center
11:16AM 41.7067 -77.4839 96° East 448 516 31,000  Level New York Center
11:17AM 41.6931 -77.3158 96° East 448 516 31,000  Level New York Center
11:18AM 41.6772 -77.1475 97° East 448 516 31,000  Level New York Center
11:19AM 41.6372 -76.9967 109° East 443 510 31,000  Level New York Center
11:20AM 41.5953 -76.8428 110° East 438 504 31,000  Level New York Center
11:21AM 41.5617 -76.7233 111° Southeast 433 498 31,000  Level New York Center
11:22AM 41.5158 -76.5558 110° East 438 504 31,000  Level New York Center
11:23AM 41.4731 -76.4053 111° Southeast 438 504 31,000 -600 Level New York Center
11:24AM 41.4281 -76.2550 112° Southeast 438 504 29,800 -2,280 Descending New York Center
11:25AM 41.3892 -76.1025 109° East 438 504 26,500 -3,240 Descending New York Center
11:26AM 41.3439 -75.9497 111° Southeast 432 497 23,400 -3,000 Descending New York Center
11:27AM 41.3061 -75.8086 110° East 410 472 20,600 -2,700 Descending New York Center
11:28AM 41.2717 -75.6928 112° Southeast 395 455 18,000 -1,920 Descending New York Center
11:29AM 41.2311 -75.5631 113° Southeast 371 427 16,800 -1,080 Descending New York Center
11:30AM 41.1919 -75.4472 114° Southeast 347 399 15,900 -1,620 Descending New York Center
11:31AM 41.1508 -75.3258 114° Southeast 347 399 13,600 -2,280 Descending New York Center
11:32AM 41.1192 -75.2300 114° Southeast 334 384 11,400 -2,160 Descending New York Center
11:33AM 41.0836 -75.1231 114° Southeast 326 375 9,300 -2,340 Descending New York Center
11:34AM 41.0458 -75.0106 114° Southeast 310 357 6,800 -1,680 Descending New York Center
11:35AM 41.0414 -74.9003 93° East 291 335 6,000 -780 Descending New York Center
11:36AM 41.0425 -74.8069 89° East 286 329 5,300 -960 Descending New York Center
11:37AM 41.0400 -74.7022 92° East 271 312 4,100 -720 Descending New York Center
11:38AM 41.0367 -74.6083 93° East 255 293 3,900 -420 Descending New York Center
11:39AM 41.0353 -74.5231 91° East 245 282 3,300 -420 Descending New York Center
11:40AM 41.0339 -74.4378 91° East 234 269 3,100 -120 Descending New York Center
11:41AM 41.0333 -74.3667 91° East 219 252 3,100 -60 Level New York TRACON
11:42AM 41.0333 -74.2833 90° East 221 254 3,000 -180 Descending New York TRACON
11:43AM 41.0333 -74.2000 90° East 211 243 2,800 -480 Descending New York TRACON
11:44AM 41.0167 -74.1167 105° East 204 235 2,100 -360 Descending New York TRACON
11:45AM 40.9833 -74.0667 131° Southeast 200 230 2,100 -60 Level New York TRACON
11:46AM 40.9333 -74.0500 166° South 169 194 2,000 -600 Descending New York TRACON
11:47AM 40.9000 -74.0500 180° South 137 158 1,000 -1,140 Descending New York TRACON
11:49AM 40.8500 -74.0500 122° Southeast  Level FlightAware Approximate
11:56AM 40.8501 -74.0608 122° Southeast  Level Estimated
11:57AM 40.8501 -74.0608 122° Southeast  Level Estimated